地図

経路データ

SID SEASON NUMBER BASIN SUBBASIN NAME ISO_TIME NATURE LAT LON WMO_WIND WMO_PRES WMO_AGENCY TRACK_TYPE DIST2LAND LANDFALL IFLAG USA_AGENCY USA_ATCF_ID USA_LAT USA_LON USA_RECORD USA_STATUS USA_WIND USA_PRES USA_SSHS USA_R34_NE USA_R34_SE USA_R34_SW USA_R34_NW USA_R50_NE USA_R50_SE USA_R50_SW USA_R50_NW USA_R64_NE USA_R64_SE USA_R64_SW USA_R64_NW USA_POCI USA_ROCI USA_RMW USA_EYE TOKYO_LAT TOKYO_LON TOKYO_GRADE TOKYO_WIND TOKYO_PRES TOKYO_R50_DIR TOKYO_R50_LONG TOKYO_R50_SHORT TOKYO_R30_DIR TOKYO_R30_LONG TOKYO_R30_SHORT TOKYO_LAND CMA_LAT CMA_LON CMA_CAT CMA_WIND CMA_PRES HKO_LAT HKO_LON HKO_CAT HKO_WIND HKO_PRES NEWDELHI_LAT NEWDELHI_LON NEWDELHI_GRADE NEWDELHI_WIND NEWDELHI_PRES NEWDELHI_CI NEWDELHI_DP NEWDELHI_POCI REUNION_LAT REUNION_LON REUNION_TYPE REUNION_WIND REUNION_PRES REUNION_TNUM REUNION_CI REUNION_RMW REUNION_R34_NE REUNION_R34_SE REUNION_R34_SW REUNION_R34_NW REUNION_R50_NE REUNION_R50_SE REUNION_R50_SW REUNION_R50_NW REUNION_R64_NE REUNION_R64_SE REUNION_R64_SW REUNION_R64_NW BOM_LAT BOM_LON BOM_TYPE BOM_WIND BOM_PRES BOM_TNUM BOM_CI BOM_RMW BOM_R34_NE BOM_R34_SE BOM_R34_SW BOM_R34_NW BOM_R50_NE BOM_R50_SE BOM_R50_SW BOM_R50_NW BOM_R64_NE BOM_R64_SE BOM_R64_SW BOM_R64_NW BOM_ROCI BOM_POCI BOM_EYE BOM_POS_METHOD BOM_PRES_METHOD NADI_LAT NADI_LON NADI_CAT NADI_WIND NADI_PRES WELLINGTON_LAT WELLINGTON_LON WELLINGTON_WIND WELLINGTON_PRES DS824_LAT DS824_LON DS824_STAGE DS824_WIND DS824_PRES TD9636_LAT TD9636_LON TD9636_STAGE TD9636_WIND TD9636_PRES TD9635_LAT TD9635_LON TD9635_WIND TD9635_PRES TD9635_ROCI NEUMANN_LAT NEUMANN_LON NEUMANN_CLASS NEUMANN_WIND NEUMANN_PRES MLC_LAT MLC_LON MLC_CLASS MLC_WIND MLC_PRES USA_GUST BOM_GUST BOM_GUST_PER REUNION_GUST REUNION_GUST_PER USA_SEAHGT USA_SEARAD_NE USA_SEARAD_SE USA_SEARAD_SW USA_SEARAD_NW STORM_SPEED STORM_DIR
1916316N12285 1916 68 NA CS NOT_NAMED 1916-11-11 00:00:00 TS 12.3000 -75.5000 30 hurdat_atl main 159 159 O_____________ hurdat_atl AL151916 12.3000 -75.5000 TD 30 -1 10 276
1916316N12285 1916 68 NA CS NOT_NAMED 1916-11-11 03:00:00 TS 12.3502 -76.0000 main 194 194 P_____________ AL151916 12.3502 -76.0000 TD 30 -1 10 276
1916316N12285 1916 68 NA CS NOT_NAMED 1916-11-11 06:00:00 TS 12.4000 -76.5000 30 hurdat_atl main 221 221 O_____________ hurdat_atl AL151916 12.4000 -76.5000 TD 30 -1 10 276
1916316N12285 1916 68 NA CS NOT_NAMED 1916-11-11 09:00:00 TS 12.4499 -77.0000 main 257 257 P_____________ AL151916 12.4499 -77.0000 TD 30 -1 10 276
1916316N12285 1916 68 NA CS NOT_NAMED 1916-11-11 12:00:00 TS 12.5000 -77.5000 30 hurdat_atl main 304 304 O_____________ hurdat_atl AL151916 12.5000 -77.5000 TD 30 -1 10 276
1916316N12285 1916 68 NA CS NOT_NAMED 1916-11-11 15:00:00 TS 12.5499 -78.0000 main 345 345 P_____________ AL151916 12.5499 -78.0000 TD 30 -1 10 276
1916316N12285 1916 68 NA CS NOT_NAMED 1916-11-11 18:00:00 TS 12.6000 -78.5000 30 hurdat_atl main 353 347 O_____________ hurdat_atl AL151916 12.6000 -78.5000 TD 30 -1 10 276
1916316N12285 1916 68 NA CS NOT_NAMED 1916-11-11 21:00:00 TS 12.6499 -79.0000 main 347 347 P_____________ AL151916 12.6499 -79.0000 TD 32 -1 10 276
1916316N12285 1916 68 NA CS NOT_NAMED 1916-11-12 00:00:00 TS 12.7000 -79.5000 35 hurdat_atl main 358 358 O_____________ hurdat_atl AL151916 12.7000 -79.5000 TS 35 0 10 275
1916316N12285 1916 68 NA CS NOT_NAMED 1916-11-12 03:00:00 TS 12.7424 -80.0001 main 359 325 P_____________ AL151916 12.7424 -80.0001 TS 35 0 10 276
1916316N12285 1916 68 NA CS NOT_NAMED 1916-11-12 06:00:00 TS 12.8000 -80.5000 35 hurdat_atl main 325 271 O_____________ hurdat_atl AL151916 12.8000 -80.5000 TS 35 0 10 277
1916316N12285 1916 68 NA CS NOT_NAMED 1916-11-12 09:00:00 TS 12.8624 -81.0002 main 271 216 P_____________ AL151916 12.8624 -81.0002 TS 37 0 10 282
1916316N12285 1916 68 NA CS NOT_NAMED 1916-11-12 12:00:00 TS 13.0000 -81.5000 40 hurdat_atl main 216 162 O_____________ hurdat_atl AL151916 13.0000 -81.5000 TS 40 0 11 291
1916316N12285 1916 68 NA CS NOT_NAMED 1916-11-12 15:00:00 TS 13.2400 -82.0076 main 162 107 P_____________ AL151916 13.2400 -82.0076 TS 42 0 11 302
1916316N12285 1916 68 NA CS NOT_NAMED 1916-11-12 18:00:00 TS 13.6000 -82.5000 45 hurdat_atl main 107 46 O_____________ hurdat_atl AL151916 13.6000 -82.5000 TS 45 0 13 311
1916316N12285 1916 68 NA CS NOT_NAMED 1916-11-12 21:00:00 TS 14.0625 -82.9725 main 31 0 P_____________ AL151916 14.0625 -82.9725 TS 42 0 13 319
1916316N12285 1916 68 NA NA NOT_NAMED 1916-11-13 00:00:00 TS 14.6000 -83.4000 40 hurdat_atl main 0 0 O_____________ hurdat_atl AL151916 14.6000 -83.4000 TS 40 0 13 324
1916316N12285 1916 68 NA NA NOT_NAMED 1916-11-13 03:00:00 TS 15.1424 -83.7727 main 0 0 P_____________ AL151916 15.1424 -83.7727 TS 37 0 13 328
1916316N12285 1916 68 NA CS NOT_NAMED 1916-11-13 06:00:00 TS 15.7000 -84.1000 35 hurdat_atl main 10 10 O_____________ hurdat_atl AL151916 15.7000 -84.1000 TS 35 0 13 331
1916316N12285 1916 68 NA CS NOT_NAMED 1916-11-13 09:00:00 TS 16.2649 -84.4151 main 55 55 P_____________ AL151916 16.2649 -84.4151 TS 40 0 12 332
1916316N12285 1916 68 NA CS NOT_NAMED 1916-11-13 12:00:00 TS 16.8000 -84.7000 45 1002 hurdat_atl main 100 100 O_____________ hurdat_atl AL151916 16.8000 -84.7000 TS 45 1002 0 11 332
1916316N12285 1916 68 NA CS NOT_NAMED 1916-11-13 15:00:00 TS 17.2650 -84.9652 main 156 156 P_____________ AL151916 17.2650 -84.9652 TS 47 0 10 332
1916316N12285 1916 68 NA CS NOT_NAMED 1916-11-13 18:00:00 TS 17.7000 -85.2000 50 hurdat_atl main 201 201 O_____________ hurdat_atl AL151916 17.7000 -85.2000 TS 50 0 10 335
1916316N12285 1916 68 NA CS NOT_NAMED 1916-11-13 21:00:00 TS 18.1650 -85.4150 main 244 210 P_____________ AL151916 18.1650 -85.4150 TS 52 0 10 337
1916316N12285 1916 68 NA CS NOT_NAMED 1916-11-14 00:00:00 TS 18.6000 -85.6000 55 hurdat_atl main 210 180 O_____________ hurdat_atl AL151916 18.6000 -85.6000 TS 55 0 9 337
1916316N12285 1916 68 NA CS NOT_NAMED 1916-11-14 03:00:00 TS 18.9650 -85.7726 main 177 158 P_____________ AL151916 18.9650 -85.7726 TS 57 0 8 338
1916316N12285 1916 68 NA CS NOT_NAMED 1916-11-14 06:00:00 TS 19.3000 -85.9000 60 hurdat_atl main 158 146 O_____________ hurdat_atl AL151916 19.3000 -85.9000 TS 60 0 7 344
1916316N12285 1916 68 NA CS NOT_NAMED 1916-11-14 09:00:00 TS 19.6425 -85.9726 main 147 129 P_____________ AL151916 19.6425 -85.9726 TS 60 0 7 352
1916316N12285 1916 68 NA CS NOT_NAMED 1916-11-14 12:00:00 TS 20.0000 -86.0000 60 hurdat_atl main 129 103 O_____________ hurdat_atl AL151916 20.0000 -86.0000 TS 60 0 8 358
1916316N12285 1916 68 NA CS NOT_NAMED 1916-11-14 15:00:00 TS 20.3925 -86.0076 main 103 80 P_____________ AL151916 20.3925 -86.0076 TS 60 0 8 1
1916316N12285 1916 68 NA CS NOT_NAMED 1916-11-14 18:00:00 TS 20.8000 -86.0000 60 hurdat_atl main 80 72 O_____________ hurdat_atl AL151916 20.8000 -86.0000 TS 60 0 8 0
1916316N12285 1916 68 NA CS NOT_NAMED 1916-11-14 21:00:00 TS 21.2075 -86.0074 main 73 73 P_____________ AL151916 21.2075 -86.0074 TS 60 0 8 1
1916316N12285 1916 68 NA CS NOT_NAMED 1916-11-15 00:00:00 TS 21.6000 -86.0000 60 hurdat_atl main 89 89 O_____________ hurdat_atl AL151916 21.6000 -86.0000 TS 60 0 7 3
1916316N12285 1916 68 NA GM NOT_NAMED 1916-11-15 03:00:00 TS 21.9500 -85.9650 main 103 93 P_____________ AL151916 21.9500 -85.9650 TS 60 0 7 7
1916316N12285 1916 68 NA GM NOT_NAMED 1916-11-15 06:00:00 TS 22.3000 -85.9000 60 hurdat_atl main 102 102 O_____________ hurdat_atl AL151916 22.3000 -85.9000 TS 60 0 7 358
1916316N12285 1916 68 NA GM NOT_NAMED 1916-11-15 09:00:00 TS 22.6684 -85.9779 main 136 136 P_____________ AL151916 22.6684 -85.9779 TS 57 0 8 13
1916316N12285 1916 68 NA GM NOT_NAMED 1916-11-15 12:00:00 ET 23.1000 -85.7000 55 hurdat_atl main 152 123 O_____________ hurdat_atl AL151916 23.1000 -85.7000 EX 55 -4 15 52
1916316N12285 1916 68 NA GM NOT_NAMED 1916-11-15 15:00:00 ET 23.6133 -84.6599 main 123 117 P_____________ AL151916 23.6133 -84.6599 EX 55 -4 25 64
1916316N12285 1916 68 NA GM NOT_NAMED 1916-11-15 18:00:00 ET 24.2000 -83.2000 55 1006 hurdat_atl main 140 75 O_____________ hurdat_atl AL151916 24.2000 -83.2000 EX 55 1006 -4 29 66
1916316N12285 1916 68 NA GM NOT_NAMED 1916-11-15 21:00:00 ET 24.8192 -81.7509 main 75 0 P_____________ AL151916 24.8192 -81.7509 EX 52 -4 30 64
1916316N12285 1916 68 NA NA NOT_NAMED 1916-11-16 00:00:00 ET 25.5000 -80.2000 50 hurdat_atl main 10 10 O_____________ hurdat_atl AL151916 25.5000 -80.2000 EX 50 -4 32 63
1916316N12285 1916 68 NA NA NOT_NAMED 1916-11-16 03:00:00 ET 26.2383 -78.6121 main 132 132 P_____________ AL151916 26.2383 -78.6121 EX 47 -4 32 62
1916316N12285 1916 68 NA NA NOT_NAMED 1916-11-16 06:00:00 ET 27.0000 -77.0000 45 hurdat_atl main 234 O_____________ hurdat_atl AL151916 27.0000 -77.0000 EX 45 -4 33 62

IBTrACS Databaseについて

本データベースは、米国NOAAが公開する1842年以降の世界の熱帯低気圧のベストトラックデータアーカイブInternational Best Track Archive for Climate Stewardship (IBTrACS)を、ウェブで閲覧しやすい形式に変換したものです。

最終更新日:2021-12-08